»·PEaware :: SWA262 KSFO-KBUR

SWA262 :: KSFO-KBUR

FLIGHT INFORMATION

Flight Status: Arrived
Operator:
Southwest Airlines
More flights by this operator :: More flights under this callsign
Pilot: Ben F. (2808)
Aircraft: BOEING 737-300
(B733)
More flights by this aircraft type
Origin: KSFO San Francisco Intl
United States
Destination: KBUR Bob Hope-Burbank
United States
More flights between these airports :: More routes between these airports
Route: +SSTIK4 CISKO RDHOT ROKKR2
File this flight plan on PilotEdge
Remarks:
Altitude:
(Current/Filed)
31,000ft
Speed:
(Current/Filed)
441kts
Departed: 21-Nov-20 08:37 AM
Arrived: 21-Nov-20 09:28 AM
Distance/Time
Traveled:
283nm/0:51
Distance/Time
To Go:
Arrived

Flight Plot

Page will automatically refresh every two minutes.

Flight plan parsing failed; only flown route is shown


Map Options




Map Legend


Flown Route
Filed Route
Departure Airport
Arrival Airport
Navaid (VOR, NDB)
Fix

Horizontal Profiles

Position Reports

Time Latitude Longitude Heading Altitude Ground
Speed
21-Nov-20 08:10 37.612257 -122.384123 30 19ft 0kts
21-Nov-20 08:11 37.612257 -122.384123 30 19ft 0kts
21-Nov-20 08:12 37.612257 -122.384123 30 19ft 0kts
21-Nov-20 08:13 37.612257 -122.384123 30 19ft 0kts
21-Nov-20 08:14 37.612257 -122.384123 30 19ft 0kts
21-Nov-20 08:15 37.612257 -122.384123 30 19ft 0kts
21-Nov-20 08:16 37.612257 -122.384123 30 19ft 0kts
21-Nov-20 08:17 37.612257 -122.384123 30 19ft 0kts
21-Nov-20 08:18 37.612257 -122.384123 30 19ft 0kts
21-Nov-20 08:19 37.612257 -122.384123 30 19ft 0kts
21-Nov-20 08:20 37.612257 -122.384123 30 19ft 0kts
21-Nov-20 08:21 37.612257 -122.384123 30 19ft 0kts
21-Nov-20 08:22 37.612257 -122.384123 30 19ft 0kts
21-Nov-20 08:23 37.612257 -122.384123 30 19ft 0kts
21-Nov-20 08:24 37.612257 -122.384123 30 19ft 0kts
21-Nov-20 08:25 37.612257 -122.384123 30 19ft 0kts
21-Nov-20 08:27 37.612257 -122.384123 30 19ft 0kts
21-Nov-20 08:28 37.612257 -122.384124 30 19ft 0kts
21-Nov-20 08:29 37.611983 -122.384329 31 19ft 2kts
21-Nov-20 08:30 37.611539 -122.384817 72 19ft 2kts
21-Nov-20 08:31 37.611517 -122.384941 79 19ft 0kts
21-Nov-20 08:32 37.611535 -122.384822 79 19ft 2kts
21-Nov-20 08:33 37.611428 -122.384134 112 19ft 3kts
21-Nov-20 08:34 37.609407 -122.384673 199 19ft 12kts
21-Nov-20 08:35 37.608426 -122.383771 117 19ft 0kts
21-Nov-20 08:36 37.608413 -122.383739 117 19ft 1kts
21-Nov-20 08:37 37.620288 -122.374719 27 22ft 155kts
21-Nov-20 08:38 37.666970 -122.361654 0 2347ft 186kts
21-Nov-20 08:39 37.713916 -122.397376 288 4650ft 240kts
21-Nov-20 08:40 37.678463 -122.460725 183 7037ft 277kts
21-Nov-20 08:41 37.599412 -122.466733 183 9888ft 291kts
21-Nov-20 08:42 37.513854 -122.472657 181 11875ft 334kts
21-Nov-20 08:42 37.445717 -122.421398 137 13686ft 364kts
21-Nov-20 08:44 37.359214 -122.316711 138 16679ft 380kts
21-Nov-20 08:44 37.294570 -122.238794 138 18557ft 393kts
21-Nov-20 08:46 37.200553 -122.125850 139 20997ft 406kts
21-Nov-20 08:46 37.131931 -122.043741 139 22620ft 416kts
21-Nov-20 08:47 37.046804 -121.942119 140 24324ft 430kts
21-Nov-20 08:48 36.958189 -121.836683 141 25840ft 446kts
21-Nov-20 08:49 36.867379 -121.729160 141 27194ft 461kts
21-Nov-20 08:50 36.772912 -121.617637 142 28657ft 470kts
21-Nov-20 08:51 36.677804 -121.505642 143 30327ft 470kts
21-Nov-20 08:52 36.582129 -121.393390 144 31305ft 470kts
21-Nov-20 08:53 36.486746 -121.282714 145 31236ft 465kts
21-Nov-20 08:54 36.391825 -121.172234 144 31245ft 468kts
21-Nov-20 08:55 36.293134 -121.069208 149 31265ft 463kts
21-Nov-20 08:56 36.193186 -120.966912 147 31285ft 466kts
21-Nov-20 08:57 36.093053 -120.864606 149 31300ft 466kts
21-Nov-20 08:58 35.993018 -120.762831 149 31263ft 471kts
21-Nov-20 08:59 35.892800 -120.661955 148 31268ft 474kts
21-Nov-20 09:00 35.791052 -120.559359 148 31269ft 474kts
21-Nov-20 09:01 35.688571 -120.456250 149 31267ft 474kts
21-Nov-20 09:02 35.585694 -120.353249 147 31267ft 475kts
21-Nov-20 09:03 35.484646 -120.247346 148 31258ft 475kts
21-Nov-20 09:04 35.383407 -120.141869 147 29766ft 472kts
21-Nov-20 09:05 35.282811 -120.037496 146 27969ft 473kts
21-Nov-20 09:06 35.181840 -119.933038 145 26306ft 473kts
21-Nov-20 09:07 35.081230 -119.829590 145 24702ft 464kts
21-Nov-20 09:08 34.984190 -119.730117 144 23077ft 436kts
21-Nov-20 09:09 34.896774 -119.640541 144 21484ft 406kts
21-Nov-20 09:10 34.826827 -119.547388 132 20028ft 407kts
21-Nov-20 09:11 34.756086 -119.441149 131 18422ft 397kts
21-Nov-20 09:12 34.688334 -119.337590 131 16674ft 376kts
21-Nov-20 09:13 34.629100 -119.240741 123 14994ft 362kts
21-Nov-20 09:14 34.577411 -119.135312 123 13218ft 355kts
21-Nov-20 09:15 34.526825 -119.034506 123 11409ft 341kts
21-Nov-20 09:16 34.461031 -118.967154 153 10683ft 288kts
21-Nov-20 09:17 34.391297 -118.921245 153 9173ft 279kts
21-Nov-20 09:18 34.328731 -118.872873 131 8012ft 258kts
21-Nov-20 09:19 34.281731 -118.810616 132 6899ft 240kts
21-Nov-20 09:20 34.237966 -118.752296 133 6388ft 237kts
21-Nov-20 09:21 34.214161 -118.681353 101 5375ft 225kts
21-Nov-20 09:22 34.201881 -118.610232 84 4314ft 205kts
21-Nov-20 09:23 34.204431 -118.546105 106 3191ft 201kts
21-Nov-20 09:24 34.197338 -118.486362 90 2507ft 161kts
21-Nov-20 09:25 34.198811 -118.436557 87 1985ft 150kts
21-Nov-20 09:26 34.198147 -118.386493 90 1151ft 148kts
21-Nov-20 09:27 34.197532 -118.350422 126 783ft 17kts
21-Nov-20 09:28 34.197191 -118.350921 264 783ft 0kts
21-Nov-20 09:29 34.196767 -118.351074 180 783ft 0kts
21-Nov-20 09:30 34.196767 -118.351074 180 783ft 0kts
21-Nov-20 09:31 34.196767 -118.351074 180 783ft 0kts

Navigation Log

Ident Type
Flight plan parsing failed, navigation log unavailable